createdAt,value
2022-08-04T00:00:10.284Z,23.50
2022-08-04T00:02:58.755Z,23.50
2022-08-04T00:06:04.462Z,23.50
2022-08-04T00:08:41.834Z,23.40
2022-08-04T00:11:15.231Z,23.30
2022-08-04T00:13:58.090Z,23.30
2022-08-04T00:16:32.952Z,23.20
2022-08-04T00:19:10.665Z,23.20
2022-08-04T00:21:39.615Z,23.20
2022-08-04T00:24:10.623Z,23.10
2022-08-04T00:26:40.471Z,23.10
2022-08-04T00:29:07.865Z,23.10
2022-08-04T00:31:54.891Z,23.10
2022-08-04T00:34:24.960Z,23.10
2022-08-04T00:36:52.351Z,23.00
2022-08-04T00:39:20.053Z,22.90
2022-08-04T00:41:56.986Z,22.90
2022-08-04T00:45:00.478Z,22.80
2022-08-04T00:48:04.825Z,22.70
2022-08-04T00:50:41.030Z,22.70
2022-08-04T00:53:17.286Z,22.60
2022-08-04T00:55:53.575Z,22.60
2022-08-04T00:58:43.731Z,22.50
2022-08-04T01:01:33.841Z,22.40
2022-08-04T01:04:16.486Z,22.40
2022-08-04T01:07:24.955Z,22.30
2022-08-04T01:10:04.586Z,22.30
2022-08-04T01:12:37.781Z,22.30
2022-08-04T01:15:05.727Z,22.30
2022-08-04T01:17:48.135Z,22.20
2022-08-04T01:20:20.699Z,22.20
2022-08-04T01:23:12.704Z,22.20
2022-08-04T01:25:49.269Z,22.20
2022-08-04T01:28:43.117Z,22.20
2022-08-04T01:31:26.276Z,22.10
2022-08-04T01:34:03.475Z,22.10
2022-08-04T01:36:38.209Z,22.10
2022-08-04T01:39:24.558Z,22.00
2022-08-04T01:41:57.799Z,22.00
2022-08-04T01:44:30.552Z,22.00
2022-08-04T01:46:57.959Z,21.90
2022-08-04T01:49:26.651Z,21.90
2022-08-04T01:51:54.092Z,21.90
2022-08-04T01:54:21.504Z,21.90
2022-08-04T01:56:50.487Z,21.90
2022-08-04T01:59:21.386Z,21.80
2022-08-04T02:01:48.853Z,21.80
2022-08-04T02:04:23.337Z,21.80
2022-08-04T02:07:41.940Z,21.80
2022-08-04T02:10:16.956Z,21.70
2022-08-04T02:13:01.018Z,21.70
2022-08-04T02:16:16.182Z,21.70
2022-08-04T02:19:06.694Z,21.60
2022-08-04T02:21:42.706Z,21.60
2022-08-04T02:24:15.374Z,21.50
2022-08-04T02:26:43.380Z,21.50
2022-08-04T02:29:21.369Z,21.50
2022-08-04T02:31:52.482Z,21.40
2022-08-04T02:34:29.427Z,21.40
2022-08-04T02:36:56.983Z,21.40
2022-08-04T02:39:24.458Z,21.30
2022-08-04T02:41:51.891Z,21.30
2022-08-04T02:44:23.288Z,21.30
2022-08-04T02:46:52.356Z,21.30
2022-08-04T02:49:19.848Z,21.30
2022-08-04T02:51:50.368Z,21.20
2022-08-04T02:54:30.507Z,21.20
2022-08-04T02:57:01.657Z,21.10
2022-08-04T02:59:30.228Z,21.10
2022-08-04T03:01:58.398Z,21.10
2022-08-04T03:04:25.817Z,21.10
2022-08-04T03:07:15.794Z,21.00
2022-08-04T03:10:33.854Z,21.00
2022-08-04T03:13:09.909Z,21.10
2022-08-04T03:15:59.351Z,21.10
2022-08-04T03:18:48.058Z,21.00
2022-08-04T03:21:46.461Z,21.00
2022-08-04T03:24:35.406Z,21.00
2022-08-04T03:27:38.043Z,21.00
2022-08-04T03:30:24.684Z,21.10
2022-08-04T03:33:04.695Z,21.00
2022-08-04T03:35:56.966Z,21.00
2022-08-04T03:38:57.068Z,21.00
2022-08-04T03:41:51.324Z,20.90
2022-08-04T03:44:46.073Z,20.90
2022-08-04T03:47:27.558Z,21.00
2022-08-04T03:50:16.699Z,21.00
2022-08-04T03:53:11.712Z,21.00
2022-08-04T03:56:23.799Z,20.90
2022-08-04T03:59:24.460Z,20.90
2022-08-04T04:02:14.910Z,20.90
2022-08-04T04:05:12.681Z,20.90
2022-08-04T04:08:03.752Z,20.90
2022-08-04T04:11:08.730Z,20.90
2022-08-04T04:14:14.987Z,20.90
2022-08-04T04:16:50.035Z,20.90
2022-08-04T04:19:36.330Z,20.90
2022-08-04T04:22:35.409Z,20.90
2022-08-04T04:25:25.852Z,20.90
2022-08-04T04:28:45.167Z,20.90
2022-08-04T04:31:22.473Z,20.90
2022-08-04T04:34:04.847Z,21.00
2022-08-04T04:36:47.273Z,21.00
2022-08-04T04:39:44.885Z,21.00
2022-08-04T04:42:31.126Z,21.00
2022-08-04T04:45:15.465Z,21.10
2022-08-04T04:48:16.614Z,21.00
2022-08-04T04:50:51.183Z,21.00
2022-08-04T04:53:38.768Z,21.10
2022-08-04T04:56:08.989Z,21.10
2022-08-04T04:58:36.389Z,21.10
2022-08-04T05:01:18.759Z,21.10
2022-08-04T05:04:04.807Z,21.20
2022-08-04T05:06:45.574Z,21.20
2022-08-04T05:09:38.129Z,21.20
2022-08-04T05:14:31.601Z,21.30
2022-08-04T05:15:08.631Z,21.40
2022-08-04T05:17:38.717Z,21.40
2022-08-04T05:20:29.515Z,21.50
2022-08-04T05:23:08.917Z,21.50
2022-08-04T05:25:50.167Z,21.60
2022-08-04T05:28:43.754Z,21.60
2022-08-04T05:31:12.595Z,21.70
2022-08-04T05:33:50.928Z,21.70
2022-08-04T05:36:39.605Z,21.80
2022-08-04T05:39:08.786Z,21.80
2022-08-04T05:41:45.151Z,21.90
2022-08-04T05:44:19.739Z,22.00
2022-08-04T05:46:54.182Z,22.00
2022-08-04T05:49:26.065Z,22.10
2022-08-04T05:51:54.480Z,22.20
2022-08-04T05:54:22.021Z,22.30
2022-08-04T05:56:49.860Z,22.30
2022-08-04T05:59:17.824Z,22.40
2022-08-04T06:01:55.827Z,22.50
2022-08-04T06:04:31.462Z,22.60
2022-08-04T06:06:58.829Z,22.70
2022-08-04T06:09:26.229Z,22.80
2022-08-04T06:12:02.008Z,22.80
2022-08-04T06:14:43.632Z,22.90
2022-08-04T06:18:33.855Z,22.90
2022-08-04T06:20:22.101Z,23.00
2022-08-04T06:22:52.593Z,23.10
2022-08-04T06:25:26.453Z,23.20
2022-08-04T06:27:54.002Z,23.20
2022-08-04T06:30:26.108Z,23.30
2022-08-04T06:33:04.333Z,23.30
2022-08-04T06:35:32.807Z,23.50
2022-08-04T06:38:01.331Z,23.50
2022-08-04T06:40:32.903Z,23.60
2022-08-04T06:43:05.588Z,23.70
2022-08-04T06:45:34.945Z,23.80
2022-08-04T06:48:04.021Z,23.80
2022-08-04T06:51:33.271Z,23.90
2022-08-04T06:53:19.469Z,24.00
2022-08-04T06:55:48.435Z,24.10
2022-08-04T06:58:16.612Z,24.20
2022-08-04T07:00:45.104Z,24.20
2022-08-04T07:03:12.637Z,24.30
2022-08-04T07:05:40.708Z,24.40
2022-08-04T07:08:10.397Z,24.50
2022-08-04T07:10:38.162Z,24.60
2022-08-04T07:13:05.784Z,24.70
2022-08-04T07:15:33.400Z,24.80
2022-08-04T07:18:03.740Z,24.90
2022-08-04T07:23:21.422Z,25.10
2022-08-04T07:25:59.652Z,25.20
2022-08-04T07:28:38.927Z,25.30
2022-08-04T07:31:06.438Z,25.40
2022-08-04T07:33:33.916Z,25.50
2022-08-04T07:36:11.400Z,25.60
2022-08-04T07:38:46.506Z,25.70
2022-08-04T07:41:40.726Z,25.70
2022-08-04T07:44:13.421Z,25.80
2022-08-04T07:46:44.542Z,25.90
2022-08-04T07:49:55.446Z,26.00
2022-08-04T07:52:02.531Z,26.10
2022-08-04T07:54:29.944Z,26.20
2022-08-04T07:56:57.296Z,26.30
2022-08-04T07:59:24.924Z,26.40
2022-08-04T08:01:52.270Z,26.40
2022-08-04T08:04:19.601Z,26.50
2022-08-04T08:06:47.150Z,26.60
2022-08-04T08:09:16.088Z,26.70
2022-08-04T08:12:36.814Z,26.70
2022-08-04T08:14:31.666Z,26.80
2022-08-04T08:17:01.478Z,26.90
2022-08-04T08:19:30.541Z,27.00
2022-08-04T08:22:00.276Z,27.10
2022-08-04T08:24:29.251Z,27.20
2022-08-04T08:26:56.969Z,27.20
2022-08-04T08:29:25.672Z,27.30
2022-08-04T08:32:05.547Z,27.30
2022-08-04T08:51:10.026Z,27.80
2022-08-04T08:53:52.708Z,27.90
2022-08-04T08:56:42.146Z,28.00
2022-08-04T08:59:37.295Z,28.10
2022-08-04T09:02:13.635Z,28.20
2022-08-04T09:04:56.038Z,28.20
2022-08-04T09:07:58.473Z,28.30
2022-08-04T09:10:33.669Z,28.30
2022-08-04T09:13:19.613Z,28.30
2022-08-04T09:15:54.971Z,28.40
2022-08-04T09:18:29.040Z,28.70
2022-08-04T09:21:26.313Z,28.70
2022-08-04T09:24:35.779Z,28.80
2022-08-04T09:27:00.415Z,28.90
2022-08-04T09:30:07.272Z,29.00
2022-08-04T09:32:59.588Z,29.10
2022-08-04T09:35:40.827Z,29.10
2022-08-04T09:38:42.866Z,29.10
2022-08-04T09:41:33.930Z,29.10
2022-08-04T09:44:57.663Z,29.20
2022-08-04T09:47:39.522Z,29.20
2022-08-04T09:50:28.531Z,29.20
2022-08-04T09:53:14.655Z,29.30
2022-08-04T09:55:53.034Z,29.40
2022-08-04T09:58:37.367Z,29.40
2022-08-04T10:01:08.394Z,29.50
2022-08-04T10:03:37.084Z,29.60
2022-08-04T10:06:19.439Z,29.70
2022-08-04T10:09:12.886Z,29.70
2022-08-04T10:12:01.317Z,29.90
2022-08-04T10:14:47.336Z,30.00
2022-08-04T10:17:43.636Z,30.10
2022-08-04T10:20:44.822Z,30.10
2022-08-04T10:23:55.879Z,30.20
2022-08-04T10:26:47.978Z,30.30
2022-08-04T10:29:32.416Z,30.40
2022-08-04T10:32:04.655Z,30.40
2022-08-04T10:34:36.695Z,30.50
2022-08-04T10:37:07.007Z,30.40
2022-08-04T10:40:10.691Z,30.40
2022-08-04T10:42:43.060Z,30.30
2022-08-04T10:45:16.472Z,30.40
2022-08-04T10:48:06.141Z,30.50
2022-08-04T10:50:38.511Z,30.60
2022-08-04T10:53:18.701Z,30.70
2022-08-04T10:56:05.566Z,30.70
2022-08-04T10:58:48.106Z,30.70
2022-08-04T11:02:01.323Z,30.80
2022-08-04T11:04:27.611Z,30.80
2022-08-04T11:06:55.699Z,30.80
2022-08-04T11:09:23.119Z,30.80
2022-08-04T11:12:01.495Z,30.90
2022-08-04T11:14:52.469Z,30.90
2022-08-04T11:17:45.230Z,31.00
2022-08-04T11:20:36.202Z,31.10
2022-08-04T11:23:12.066Z,31.10
2022-08-04T11:26:03.388Z,31.10
2022-08-04T11:28:34.264Z,31.10
2022-08-04T11:31:06.293Z,31.10
2022-08-04T11:33:45.898Z,31.10
2022-08-04T11:36:22.537Z,31.20
2022-08-04T11:39:27.504Z,31.30
2022-08-04T11:42:21.472Z,31.40
2022-08-04T11:44:52.665Z,31.50
2022-08-04T11:47:34.386Z,31.50
2022-08-04T11:50:10.269Z,31.60
2022-08-04T11:52:39.012Z,31.70
2022-08-04T11:55:11.475Z,31.80
2022-08-04T11:57:38.867Z,31.90
2022-08-04T12:00:10.021Z,32.00
2022-08-04T12:02:56.870Z,32.10
2022-08-04T12:05:41.864Z,32.20
2022-08-04T12:08:19.392Z,32.30
2022-08-04T12:10:58.699Z,32.30
2022-08-04T12:13:35.344Z,32.50
2022-08-04T12:16:03.099Z,32.50
2022-08-04T12:18:58.212Z,32.50
2022-08-04T12:21:37.985Z,32.50
2022-08-04T12:24:16.923Z,32.30
2022-08-04T12:26:49.393Z,32.30
2022-08-04T12:29:16.788Z,32.40
2022-08-04T12:31:51.839Z,32.40
2022-08-04T12:34:31.371Z,32.40
2022-08-04T12:37:28.400Z,32.40
2022-08-04T12:40:28.173Z,32.40
2022-08-04T12:43:04.127Z,32.50
2022-08-04T12:45:31.544Z,32.60
2022-08-04T12:47:59.615Z,32.70
2022-08-04T12:50:27.997Z,32.70
2022-08-04T12:53:02.064Z,32.80
2022-08-04T12:55:31.931Z,32.90
2022-08-04T12:57:59.389Z,32.80
2022-08-04T13:00:40.600Z,32.80
2022-08-04T13:03:11.780Z,32.70
2022-08-04T13:05:42.591Z,32.70
2022-08-04T13:08:11.364Z,32.60
2022-08-04T13:10:46.803Z,32.60
2022-08-04T13:13:17.187Z,32.50
2022-08-04T13:15:56.681Z,32.40
2022-08-04T13:18:30.105Z,32.40
2022-08-04T13:21:19.388Z,32.40
2022-08-04T13:24:09.790Z,32.40
2022-08-04T13:26:57.916Z,32.50
2022-08-04T13:30:00.536Z,32.50
2022-08-04T13:32:28.683Z,32.50
2022-08-04T13:34:56.539Z,32.60
2022-08-04T13:37:26.838Z,32.60
2022-08-04T13:39:55.208Z,32.60
2022-08-04T13:42:24.191Z,32.70
2022-08-04T13:44:55.198Z,32.70
2022-08-04T13:47:25.513Z,32.70
2022-08-04T13:50:32.283Z,32.70
2022-08-04T13:53:00.854Z,32.80
2022-08-04T13:55:32.107Z,32.80
2022-08-04T13:58:19.968Z,33.00
2022-08-04T14:01:07.640Z,33.00
2022-08-04T14:03:53.645Z,33.00
2022-08-04T14:06:25.373Z,32.90
2022-08-04T14:09:01.096Z,32.80
2022-08-04T14:12:09.343Z,32.80
2022-08-04T14:14:31.811Z,32.90
2022-08-04T14:17:19.660Z,32.90
2022-08-04T14:20:01.611Z,32.90
2022-08-04T14:22:34.735Z,33.00
2022-08-04T14:25:06.675Z,32.90
2022-08-04T14:27:44.184Z,32.90
2022-08-04T14:30:33.183Z,32.80
2022-08-04T14:34:01.576Z,32.80
2022-08-04T14:35:59.602Z,32.80
2022-08-04T14:38:50.778Z,32.90
2022-08-04T14:41:20.505Z,33.00
2022-08-04T14:43:54.985Z,33.10
2022-08-04T14:46:23.533Z,33.00
2022-08-04T14:49:10.397Z,33.10
2022-08-04T14:51:41.163Z,33.20
2022-08-04T14:54:13.144Z,33.30
2022-08-04T14:56:53.111Z,33.20
2022-08-04T14:59:20.527Z,33.20
2022-08-04T15:08:10.591Z,33.10
2022-08-04T15:10:41.293Z,33.10
2022-08-04T15:13:19.948Z,33.20
2022-08-04T15:16:07.046Z,33.20
2022-08-04T15:19:00.867Z,33.20
2022-08-04T15:21:29.008Z,33.30
2022-08-04T15:23:57.205Z,33.40
2022-08-04T15:26:35.638Z,33.40
2022-08-04T15:30:00.259Z,33.20
2022-08-04T15:32:25.009Z,33.30
2022-08-04T15:38:00.127Z,33.40
2022-08-04T15:40:48.245Z,33.40
2022-08-04T15:43:21.399Z,33.40
2022-08-04T15:46:02.322Z,33.50
2022-08-04T15:48:40.899Z,33.50
2022-08-04T15:51:20.501Z,33.50
2022-08-04T15:54:32.922Z,33.60
2022-08-04T15:57:03.073Z,33.60
2022-08-04T16:00:04.132Z,33.60
2022-08-04T16:02:47.317Z,33.70
2022-08-04T16:05:18.636Z,33.70
2022-08-04T16:07:58.460Z,33.70
2022-08-04T16:10:35.314Z,33.70
2022-08-04T16:13:16.453Z,33.70
2022-08-04T16:15:47.930Z,33.70
2022-08-04T16:18:30.827Z,33.80
2022-08-04T16:21:04.171Z,33.80
2022-08-04T16:24:05.632Z,33.80
2022-08-04T16:26:45.604Z,33.70
2022-08-04T16:29:22.746Z,33.70
2022-08-04T16:32:05.608Z,33.60
2022-08-04T16:34:49.593Z,33.60
2022-08-04T16:37:35.685Z,33.60
2022-08-04T16:40:29.768Z,33.60
2022-08-04T16:43:22.213Z,33.50
2022-08-04T16:46:02.133Z,33.40
2022-08-04T16:48:30.870Z,33.30
2022-08-04T16:51:07.909Z,33.30
2022-08-04T16:54:02.676Z,33.20
2022-08-04T16:56:36.061Z,33.10
2022-08-04T16:59:10.736Z,33.00
2022-08-04T17:01:44.720Z,32.90
2022-08-04T17:04:12.085Z,32.80
2022-08-04T17:06:43.100Z,32.80
2022-08-04T17:09:15.307Z,32.70
2022-08-04T17:11:43.346Z,32.70
2022-08-04T17:14:10.836Z,32.60
2022-08-04T17:16:42.538Z,32.50
2022-08-04T17:19:24.392Z,32.40
2022-08-04T17:22:04.332Z,32.30
2022-08-04T17:24:34.038Z,32.20
2022-08-04T17:27:01.420Z,32.20
2022-08-04T17:29:42.831Z,32.10
2022-08-04T17:32:16.813Z,32.10
2022-08-04T17:34:51.418Z,32.00
2022-08-04T17:37:38.507Z,31.90
2022-08-04T17:40:10.262Z,31.80
2022-08-04T17:42:39.826Z,31.70
2022-08-04T17:45:48.723Z,31.70
2022-08-04T17:47:57.036Z,31.60
2022-08-04T17:50:29.542Z,31.50
2022-08-04T17:53:11.647Z,31.40
2022-08-04T17:55:46.816Z,31.40
2022-08-04T17:58:21.046Z,31.30
2022-08-04T18:03:51.577Z,31.20
2022-08-04T18:06:21.878Z,31.10
2022-08-04T18:11:41.959Z,31.00
2022-08-04T18:14:10.428Z,30.90
2022-08-04T18:16:45.051Z,30.80
2022-08-04T18:19:14.057Z,30.70
2022-08-04T18:21:45.628Z,30.60
2022-08-04T18:24:34.596Z,30.60
2022-08-04T18:27:06.637Z,30.40
2022-08-04T18:29:39.424Z,30.40
2022-08-04T18:32:09.147Z,30.30
2022-08-04T18:34:40.813Z,30.20
2022-08-04T18:38:03.654Z,30.10
2022-08-04T18:40:26.642Z,30.00
2022-08-04T18:42:57.843Z,30.00
2022-08-04T18:45:33.964Z,29.90
2022-08-04T18:48:02.137Z,29.80
2022-08-04T18:51:00.871Z,29.80
2022-08-04T18:53:18.886Z,29.70
2022-08-04T18:55:57.227Z,29.60
2022-08-04T18:58:27.411Z,29.60
2022-08-04T19:00:56.190Z,29.50
2022-08-04T19:06:16.279Z,29.50
2022-08-04T19:08:45.296Z,29.40
2022-08-04T19:11:37.463Z,29.40
2022-08-04T19:14:04.546Z,29.40
2022-08-04T19:16:32.635Z,29.30
2022-08-04T19:19:02.043Z,29.30
2022-08-04T19:22:00.033Z,29.30
2022-08-04T19:24:32.692Z,29.20
2022-08-04T19:27:07.538Z,29.20
2022-08-04T19:32:25.815Z,29.10
2022-08-04T19:34:54.394Z,29.10
2022-08-04T19:38:01.688Z,29.00
2022-08-04T19:40:13.059Z,29.00
2022-08-04T19:42:42.706Z,29.00
2022-08-04T19:45:15.441Z,29.00
2022-08-04T19:48:21.643Z,28.90
2022-08-04T19:50:32.437Z,28.80
2022-08-04T19:53:00.872Z,28.80
2022-08-04T19:55:37.196Z,28.70
2022-08-04T19:58:06.199Z,28.70
2022-08-04T20:00:35.315Z,28.60
2022-08-04T20:03:09.812Z,28.60
2022-08-04T20:05:54.993Z,28.50
2022-08-04T20:08:26.288Z,28.50
2022-08-04T20:10:55.413Z,28.40
2022-08-04T20:13:25.451Z,28.40
2022-08-04T20:16:01.279Z,28.40
2022-08-04T20:18:36.143Z,28.30
2022-08-04T20:21:18.905Z,28.30
2022-08-04T20:23:47.923Z,28.30
2022-08-04T20:26:16.284Z,28.20
2022-08-04T20:28:45.954Z,28.20
2022-08-04T20:31:19.257Z,28.20
2022-08-04T20:36:34.240Z,28.10
2022-08-04T20:39:03.556Z,28.10
2022-08-04T20:41:36.986Z,28.00
2022-08-04T20:44:04.508Z,28.00
2022-08-04T20:46:38.160Z,28.00
2022-08-04T20:49:06.155Z,27.90
2022-08-04T20:51:40.103Z,27.80
2022-08-04T20:54:16.651Z,27.80
2022-08-04T20:56:55.511Z,27.70
2022-08-04T20:59:22.928Z,27.70
2022-08-04T21:01:53.878Z,27.60
2022-08-04T21:04:35.792Z,27.60
2022-08-04T21:07:05.724Z,27.60
2022-08-04T21:09:38.122Z,27.60
2022-08-04T21:12:27.224Z,27.50
2022-08-04T21:15:01.080Z,27.50
2022-08-04T21:17:59.191Z,27.50
2022-08-04T21:20:27.266Z,27.50
2022-08-04T21:22:55.010Z,27.40
2022-08-04T21:25:22.443Z,27.40
2022-08-04T21:27:49.991Z,27.30
2022-08-04T21:30:26.041Z,27.30
2022-08-04T21:32:54.876Z,27.20
2022-08-04T21:35:36.738Z,27.20
2022-08-04T21:38:16.540Z,27.10
2022-08-04T21:40:54.517Z,27.00
2022-08-04T21:43:23.624Z,27.00
2022-08-04T21:45:54.993Z,26.90
2022-08-04T21:48:23.958Z,26.80
2022-08-04T21:50:55.310Z,26.80
2022-08-04T21:53:22.841Z,26.80
2022-08-04T21:56:06.172Z,26.70
2022-08-04T21:58:37.851Z,26.70
2022-08-04T22:01:12.569Z,26.60
2022-08-04T22:03:52.485Z,26.60
2022-08-04T22:06:28.468Z,26.50
2022-08-04T22:08:57.114Z,26.50
2022-08-04T22:11:49.229Z,26.50
2022-08-04T22:14:29.389Z,26.40
2022-08-04T22:17:02.798Z,26.40
2022-08-04T22:19:49.779Z,26.50
2022-08-04T22:22:24.533Z,26.50
2022-08-04T22:25:00.977Z,26.50
2022-08-04T22:27:47.627Z,26.40
2022-08-04T22:30:17.334Z,26.40
2022-08-04T22:32:48.251Z,26.30
2022-08-04T22:35:44.087Z,26.30
2022-08-04T22:38:31.765Z,26.30
2022-08-04T22:41:00.696Z,26.20
2022-08-04T22:43:33.556Z,26.20
2022-08-04T22:46:23.393Z,26.20
2022-08-04T22:48:52.000Z,26.10
2022-08-04T22:51:19.637Z,26.10
2022-08-04T22:53:48.727Z,26.00
2022-08-04T22:56:37.499Z,26.00
2022-08-04T22:59:04.748Z,25.90
2022-08-04T23:01:57.985Z,25.90
2022-08-04T23:04:19.491Z,25.80
2022-08-04T23:06:46.877Z,25.70
2022-08-04T23:09:16.177Z,25.60
2022-08-04T23:11:43.980Z,25.60
2022-08-04T23:14:11.582Z,25.60
2022-08-04T23:16:40.448Z,25.50
2022-08-04T23:19:12.146Z,25.40
2022-08-04T23:21:47.237Z,25.40
2022-08-04T23:24:15.346Z,25.40
2022-08-04T23:26:42.710Z,25.40
2022-08-04T23:29:10.160Z,25.40
2022-08-04T23:31:40.915Z,25.40
2022-08-04T23:34:24.891Z,25.40
2022-08-04T23:36:52.283Z,25.40
2022-08-04T23:39:19.729Z,25.40
2022-08-04T23:41:53.348Z,25.30
2022-08-04T23:44:25.778Z,25.20
2022-08-04T23:47:01.223Z,25.20
2022-08-04T23:49:44.483Z,25.10
2022-08-04T23:52:23.298Z,25.10
2022-08-04T23:54:55.888Z,25.10
2022-08-04T23:57:23.248Z,25.00
2022-08-04T23:59:54.286Z,25.00
